Time;durP1;ratioP1;P1;durP2;ratioP2;P2;SDS_P1;SDS_P2;PMS_P1;PMS_P2;Temp;Humidity;BMP_temperature;BMP_pressure;BME280_temperature;BME280_humidity;BME280_pressure;Samples;Min_cycle;Max_cycle;Signal;HPM_P1;HPM_P2
2022/06/25 00:00:25;;;;;;;2.70;2.50;;;11.80;99.90;;;;;;4148518;28;20755;-67
2022/06/25 00:02:26;;;;;;;4.00;2.30;;;11.80;99.90;;;;;;4148242;28;20248;-67
2022/06/25 00:06:45;;;;;;;2.60;2.40;;;11.80;99.90;;;;;;4148440;28;20208;-68
2022/06/25 00:08:48;;;;;;;2.83;2.60;;;11.70;99.90;;;;;;4148653;28;20174;-67
2022/06/25 00:10:48;;;;;;;2.90;2.60;;;11.70;99.90;;;;;;4147492;28;20232;-68
2022/06/25 00:12:49;;;;;;;2.97;2.47;;;11.60;99.90;;;;;;4148401;28;20186;-67
2022/06/25 00:14:50;;;;;;;2.60;2.40;;;11.60;99.90;;;;;;4148423;28;20679;-68
2022/06/25 00:16:50;;;;;;;3.50;2.27;;;11.60;99.90;;;;;;4130798;28;20194;-67
2022/06/25 00:18:51;;;;;;;2.60;2.40;;;11.50;99.90;;;;;;4148274;28;20264;-68
2022/06/25 00:20:52;;;;;;;2.50;2.30;;;11.40;99.90;;;;;;4147747;28;20209;-68
2022/06/25 00:22:52;;;;;;;3.00;2.63;;;11.50;99.90;;;;;;4148265;28;20596;-68
2022/06/25 00:24:53;;;;;;;3.87;2.87;;;11.40;99.90;;;;;;4148013;28;20523;-68
2022/06/25 00:26:53;;;;;;;2.80;2.50;;;11.40;99.90;;;;;;4147649;28;20211;-67
2022/06/25 00:28:54;;;;;;;2.50;2.30;;;11.40;99.90;;;;;;4148147;28;20793;-68
2022/06/25 00:30:55;;;;;;;3.77;2.87;;;11.30;99.90;;;;;;4130116;28;20194;-67
2022/06/25 00:32:55;;;;;;;2.90;2.60;;;11.30;99.90;;;;;;4147843;28;20193;-67
2022/06/25 00:34:56;;;;;;;4.03;2.60;;;11.20;99.90;;;;;;4148129;28;20181;-67
2022/06/25 00:36:56;;;;;;;3.07;2.43;;;11.10;99.90;;;;;;4148045;28;20192;-69
2022/06/25 00:38:57;;;;;;;3.60;2.80;;;11.10;99.90;;;;;;4147979;28;20552;-69
2022/06/25 00:40:58;;;;;;;3.33;2.60;;;11.10;99.90;;;;;;4147238;28;20209;-69
2022/06/25 00:42:59;;;;;;;2.33;2.10;;;11.10;99.90;;;;;;4147817;28;20178;-67
2022/06/25 00:44:59;;;;;;;3.17;2.87;;;11.20;99.90;;;;;;4148063;28;20556;-67
2022/06/25 00:47:00;;;;;;;3.00;2.67;;;11.20;99.90;;;;;;4148102;28;20264;-67
2022/06/25 00:49:01;;;;;;;2.60;2.30;;;11.20;99.90;;;;;;4148115;28;20691;-67
2022/06/25 00:51:08;;;;;;;2.57;2.37;;;11.10;99.90;;;;;;4147278;28;20237;-67
2022/06/25 00:53:11;;;;;;;2.27;2.10;;;11.10;99.90;;;;;;4147908;28;20197;-67
2022/06/25 00:55:12;;;;;;;3.07;2.53;;;11.10;99.90;;;;;;4147299;28;20276;-69
2022/06/25 00:57:21;;;;;;;2.57;2.20;;;11.20;99.90;;;;;;4147936;28;20546;-69
2022/06/25 00:59:28;;;;;;;2.40;2.20;;;11.20;99.90;;;;;;4147761;28;20188;-68
2022/06/25 01:01:33;;;;;;;3.30;2.63;;;11.20;99.90;;;;;;4147101;28;20296;-69
2022/06/25 01:03:33;;;;;;;3.83;2.50;;;11.20;99.90;;;;;;4142285;28;20178;-68
2022/06/25 01:05:34;;;;;;;2.47;2.27;;;11.10;99.90;;;;;;4147476;28;20192;-68
2022/06/25 01:07:36;;;;;;;2.53;2.30;;;11.10;99.90;;;;;;4147709;28;20190;-69
2022/06/25 01:09:38;;;;;;;2.10;1.90;;;11.10;99.90;;;;;;4147634;28;20185;-70
2022/06/25 01:11:39;;;;;;;2.53;2.20;;;11.10;99.90;;;;;;4146923;28;20204;-69
2022/06/25 01:13:39;;;;;;;3.83;2.30;;;11.10;99.90;;;;;;4147534;28;20588;-69
2022/06/25 01:15:40;;;;;;;2.20;2.00;;;11.10;99.90;;;;;;4147460;28;20189;-69
2022/06/25 01:17:51;;;;;;;2.37;2.17;;;11.00;99.90;;;;;;4147434;28;20217;-69
2022/06/25 01:19:52;;;;;;;2.70;2.20;;;10.90;99.90;;;;;;4147008;28;20182;-69
2022/06/25 01:21:52;;;;;;;4.13;2.30;;;10.90;99.90;;;;;;4145311;28;20300;-71
2022/06/25 01:23:53;;;;;;;2.33;2.13;;;10.90;99.90;;;;;;4147136;28;20178;-69
2022/06/25 01:25:53;;;;;;;3.63;1.90;;;10.90;99.90;;;;;;4147162;28;20660;-69
2022/06/25 01:27:54;;;;;;;2.30;2.10;;;10.90;99.90;;;;;;4146903;28;20194;-69
2022/06/25 01:29:54;;;;;;;2.53;2.33;;;10.80;99.90;;;;;;4147329;28;20182;-69
2022/06/25 01:31:55;;;;;;;3.07;2.50;;;10.80;99.90;;;;;;4146490;28;20209;-69
2022/06/25 01:33:56;;;;;;;2.60;2.20;;;10.80;99.90;;;;;;4145732;28;20537;-69
2022/06/25 01:35:56;;;;;;;2.60;2.20;;;10.80;99.90;;;;;;4147442;28;20245;-69
2022/06/25 01:37:57;;;;;;;2.43;1.90;;;10.70;99.90;;;;;;4147102;28;20192;-69
2022/06/25 01:39:57;;;;;;;3.53;1.90;;;10.70;99.90;;;;;;4147017;28;20194;-70
2022/06/25 01:41:58;;;;;;;4.37;2.23;;;10.70;99.90;;;;;;4146055;28;20232;-69
2022/06/25 01:43:58;;;;;;;3.13;2.30;;;10.80;99.90;;;;;;4146645;28;20177;-69
2022/06/25 01:45:59;;;;;;;2.30;2.10;;;10.70;99.90;;;;;;4146896;28;20640;-69
2022/06/25 01:48:00;;;;;;;2.20;2.10;;;10.70;99.90;;;;;;4147177;28;20182;-69
2022/06/25 01:50:01;;;;;;;2.30;1.77;;;10.60;99.90;;;;;;4146911;28;20178;-69
2022/06/25 01:52:02;;;;;;;4.67;2.33;;;10.60;99.90;;;;;;4128838;28;20205;-69
2022/06/25 01:54:02;;;;;;;3.23;2.40;;;10.50;99.90;;;;;;4146778;28;20185;-69
2022/06/25 01:56:03;;;;;;;4.33;2.20;;;10.50;99.90;;;;;;4146869;28;20200;-69
2022/06/25 01:58:04;;;;;;;2.43;2.23;;;10.40;99.90;;;;;;4147017;28;20197;-69
2022/06/25 02:00:10;;;;;;;2.20;2.00;;;10.40;99.90;;;;;;4146741;28;20205;-69
2022/06/25 02:02:11;;;;;;;3.10;2.10;;;10.40;99.90;;;;;;4145794;28;20268;-69
2022/06/25 02:04:13;;;;;;;2.30;2.10;;;10.50;99.90;;;;;;4146747;28;20244;-69
2022/06/25 02:06:13;;;;;;;2.03;1.83;;;10.40;99.90;;;;;;4146740;28;20579;-69
2022/06/25 02:08:16;;;;;;;2.30;1.97;;;10.40;99.90;;;;;;4146738;28;20177;-69
2022/06/25 02:10:17;;;;;;;3.13;1.90;;;10.40;99.90;;;;;;4146435;28;20181;-69
2022/06/25 02:12:17;;;;;;;3.23;2.53;;;10.40;99.90;;;;;;4145977;28;20258;-69
2022/06/25 02:14:18;;;;;;;3.20;2.27;;;10.40;99.90;;;;;;4146749;28;20675;-69
2022/06/25 02:16:20;;;;;;;2.30;2.10;;;10.30;99.90;;;;;;4146655;28;20211;-69
2022/06/25 02:18:22;;;;;;;2.33;2.13;;;10.30;99.90;;;;;;4146529;28;20536;-69
2022/06/25 02:20:23;;;;;;;3.10;2.70;;;10.20;99.90;;;;;;4146346;28;20184;-69
2022/06/25 02:22:23;;;;;;;2.83;2.00;;;10.30;99.90;;;;;;4146003;28;20586;-69
2022/06/25 02:24:24;;;;;;;2.03;1.83;;;10.30;99.90;;;;;;4146851;28;20197;-69
2022/06/25 02:26:24;;;;;;;2.43;2.23;;;10.30;99.90;;;;;;4146888;28;20250;-69
2022/06/25 02:28:25;;;;;;;2.53;2.00;;;10.40;99.90;;;;;;4146639;28;20184;-69
2022/06/25 02:30:26;;;;;;;3.37;2.43;;;10.30;99.90;;;;;;4146581;28;20570;-69
2022/06/25 02:32:26;;;;;;;2.23;2.03;;;10.30;99.90;;;;;;4149169;28;20201;-69
2022/06/25 02:34:27;;;;;;;3.27;2.60;;;10.20;99.90;;;;;;4150196;28;20195;-68
2022/06/25 02:36:27;;;;;;;2.53;2.33;;;10.20;99.90;;;;;;4150091;28;20185;-69
2022/06/25 02:38:28;;;;;;;3.53;1.93;;;10.20;99.90;;;;;;4149824;28;20621;-69
2022/06/25 02:40:29;;;;;;;2.43;2.23;;;10.20;99.90;;;;;;4149639;28;20267;-69
2022/06/25 02:42:34;;;;;;;4.20;2.20;;;10.30;99.90;;;;;;4149307;28;20190;-69
2022/06/25 02:44:35;;;;;;;1.90;1.80;;;10.30;99.90;;;;;;4149773;28;20185;-69
2022/06/25 02:46:35;;;;;;;2.30;2.10;;;10.30;99.90;;;;;;4149668;28;20186;-69
2022/06/25 02:48:36;;;;;;;2.87;2.10;;;10.30;99.90;;;;;;4149285;28;20174;-69
2022/06/25 02:50:36;;;;;;;2.27;2.00;;;10.30;99.90;;;;;;4149237;28;20775;-69
2022/06/25 02:52:37;;;;;;;1.83;1.70;;;10.30;99.90;;;;;;4142642;28;20703;-69
2022/06/25 02:54:37;;;;;;;2.07;1.87;;;10.20;99.90;;;;;;4148454;28;20213;-69
2022/06/25 02:58:58;;;;;;;1.80;1.70;;;10.00;99.90;;;;;;4148966;28;20231;-69
2022/06/25 03:00:59;;;;;;;3.53;2.07;;;10.10;99.90;;;;;;4148405;28;20593;-69
2022/06/25 03:02:59;;;;;;;2.30;2.10;;;10.10;99.90;;;;;;4149297;28;20259;-69
2022/06/25 03:05:00;;;;;;;2.83;1.97;;;10.20;99.90;;;;;;4149103;28;20188;-68
2022/06/25 03:07:00;;;;;;;2.50;2.10;;;10.30;99.90;;;;;;4149151;28;20193;-69
2022/06/25 03:09:01;;;;;;;3.30;2.30;;;10.50;99.90;;;;;;4149027;28;20176;-69
2022/06/25 03:11:02;;;;;;;2.40;2.20;;;10.60;99.90;;;;;;4146602;28;20587;-69
2022/06/25 03:13:02;;;;;;;3.13;2.30;;;10.50;99.90;;;;;;4148924;28;20232;-69
2022/06/25 03:15:03;;;;;;;3.17;2.13;;;10.60;99.90;;;;;;4148982;28;20559;-69
2022/06/25 03:17:04;;;;;;;2.57;2.30;;;10.50;99.90;;;;;;4148982;28;20602;-69
2022/06/25 03:19:05;;;;;;;4.70;2.37;;;10.50;99.90;;;;;;4149034;28;20190;-69
2022/06/25 03:21:05;;;;;;;2.50;2.30;;;10.40;99.90;;;;;;4148084;28;20228;-69
2022/06/25 03:23:06;;;;;;;3.40;2.27;;;10.30;99.90;;;;;;4148793;28;20591;-69
2022/06/25 03:25:07;;;;;;;14.13;2.60;;;10.30;99.90;;;;;;4148777;28;20727;-68
2022/06/25 03:27:08;;;;;;;3.37;2.17;;;10.20;99.90;;;;;;4148713;28;20193;-69
2022/06/25 03:29:09;;;;;;;2.53;2.33;;;10.20;99.90;;;;;;4148784;28;20182;-69
2022/06/25 03:31:10;;;;;;;2.60;2.40;;;10.20;99.90;;;;;;4147944;28;20298;-69
2022/06/25 03:33:12;;;;;;;4.33;2.17;;;10.10;99.90;;;;;;4148575;28;20583;-68
2022/06/25 03:35:13;;;;;;;4.33;2.60;;;10.10;99.90;;;;;;4148603;28;20293;-69
2022/06/25 03:37:13;;;;;;;2.97;2.10;;;10.00;99.90;;;;;;4148500;28;20177;-68
2022/06/25 03:39:14;;;;;;;2.17;1.90;;;9.90;99.90;;;;;;4148248;28;20224;-69
2022/06/25 03:41:33;;;;;;;3.80;2.23;;;9.90;99.90;;;;;;4147602;28;20216;-68
2022/06/25 03:43:33;;;;;;;2.20;2.00;;;9.80;99.90;;;;;;4131014;28;20344;-69
2022/06/25 03:45:34;;;;;;;4.07;2.30;;;9.90;99.90;;;;;;4148384;28;20181;-69
2022/06/25 03:47:34;;;;;;;2.63;2.17;;;9.90;99.90;;;;;;4148333;28;20180;-69
2022/06/25 03:49:35;;;;;;;2.20;2.00;;;9.90;99.90;;;;;;4148402;28;20706;-69
2022/06/25 03:51:36;;;;;;;4.63;1.90;;;9.80;99.90;;;;;;4147616;28;20201;-69
2022/06/25 03:53:37;;;;;;;2.40;2.17;;;9.80;99.90;;;;;;4148044;28;20557;-69
2022/06/25 03:55:37;;;;;;;2.63;2.43;;;9.90;99.90;;;;;;4148327;28;20204;-69
2022/06/25 03:57:38;;;;;;;3.03;2.00;;;9.90;99.90;;;;;;4148295;28;20178;-69
2022/06/25 03:59:39;;;;;;;2.37;2.00;;;9.80;99.90;;;;;;4148305;28;20195;-69
2022/06/25 04:01:40;;;;;;;2.77;2.30;;;9.70;99.90;;;;;;4147657;28;20295;-69
2022/06/25 04:03:41;;;;;;;2.50;2.30;;;9.70;99.90;;;;;;4148080;28;20554;-69
2022/06/25 04:05:41;;;;;;;2.33;2.13;;;9.70;99.90;;;;;;4148119;28;20186;-69
2022/06/25 04:07:42;;;;;;;3.23;2.37;;;9.70;99.90;;;;;;4148068;28;20208;-69
2022/06/25 04:09:42;;;;;;;2.60;2.17;;;9.80;99.90;;;;;;4147904;28;20183;-69
2022/06/25 04:11:43;;;;;;;1.87;1.77;;;9.80;99.90;;;;;;4147397;28;20280;-68
2022/06/25 04:13:44;;;;;;;2.30;2.10;;;9.70;99.90;;;;;;4147927;28;20196;-69
2022/06/25 04:15:44;;;;;;;1.70;1.60;;;9.80;99.90;;;;;;4148100;28;20197;-69
2022/06/25 04:17:45;;;;;;;4.87;1.80;;;9.80;99.90;;;;;;4147865;28;20197;-69
2022/06/25 04:19:45;;;;;;;3.17;2.00;;;9.80;99.90;;;;;;4147869;28;20181;-69
2022/06/25 04:21:49;;;;;;;3.57;2.13;;;9.80;99.90;;;;;;4147143;28;20216;-69
2022/06/25 04:23:49;;;;;;;2.03;1.90;;;9.90;99.90;;;;;;4147747;28;20178;-69
2022/06/25 04:25:50;;;;;;;2.73;1.93;;;10.00;99.90;;;;;;4147816;28;20193;-69
2022/06/25 04:30:10;;;;;;;2.00;1.83;;;10.00;99.90;;;;;;4149721;28;20200;-69
2022/06/25 04:32:11;;;;;;;3.83;2.00;;;10.00;99.90;;;;;;4148818;28;20208;-68
2022/06/25 04:34:11;;;;;;;2.37;2.17;;;10.10;99.90;;;;;;4149662;28;20213;-69
2022/06/25 04:36:12;;;;;;;3.00;2.10;;;10.10;99.90;;;;;;4149555;28;20644;-69
2022/06/25 04:38:12;;;;;;;3.63;2.70;;;10.20;99.90;;;;;;4149356;28;20239;-68
2022/06/25 04:40:13;;;;;;;2.33;1.93;;;10.30;99.90;;;;;;4149441;28;20173;-69
2022/06/25 04:42:14;;;;;;;2.57;2.37;;;10.40;99.90;;;;;;4148999;28;20625;-69
2022/06/25 04:44:15;;;;;;;5.67;2.37;;;10.30;99.90;;;;;;4149882;28;20182;-69
2022/06/25 04:46:16;;;;;;;3.57;2.10;;;10.40;99.90;;;;;;4149549;28;20166;-69
2022/06/25 04:48:17;;;;;;;2.40;2.10;;;10.40;99.90;;;;;;4149068;28;20236;-68
2022/06/25 04:50:17;;;;;;;3.83;2.10;;;10.50;99.90;;;;;;4148947;28;20196;-69
2022/06/25 04:52:18;;;;;;;3.47;2.37;;;10.60;99.90;;;;;;4148756;28;20722;-69
2022/06/25 04:54:18;;;;;;;2.53;1.93;;;10.60;99.90;;;;;;4148028;28;20231;-67
2022/06/25 04:56:19;;;;;;;2.83;2.50;;;10.60;99.90;;;;;;4149345;28;20177;-69
2022/06/25 04:58:20;;;;;;;2.57;2.20;;;10.60;99.90;;;;;;4149491;28;20268;-69
2022/06/25 05:00:20;;;;;;;2.23;2.03;;;10.60;99.90;;;;;;4149284;28;20178;-69
2022/06/25 05:02:21;;;;;;;3.13;2.37;;;10.60;99.90;;;;;;4148335;28;20217;-69
2022/06/25 05:04:21;;;;;;;2.27;2.07;;;10.60;99.90;;;;;;4147281;28;20622;-69
2022/06/25 05:06:22;;;;;;;2.93;2.43;;;10.60;99.90;;;;;;4147219;28;20228;-68
2022/06/25 05:08:22;;;;;;;2.90;2.30;;;10.60;99.90;;;;;;4143057;28;20703;-69
2022/06/25 05:10:23;;;;;;;2.90;2.30;;;10.70;99.90;;;;;;4138201;28;20239;-69
2022/06/25 05:14:43;;;;;;;2.53;1.90;;;10.80;99.90;;;;;;4147189;28;20722;-69
2022/06/25 05:16:45;;;;;;;2.47;2.27;;;10.80;99.90;;;;;;4147138;28;20178;-69
2022/06/25 05:18:47;;;;;;;2.60;2.40;;;10.80;99.90;;;;;;4146923;28;20228;-69
2022/06/25 05:20:48;;;;;;;3.23;2.20;;;10.80;99.90;;;;;;4146538;28;20206;-68
2022/06/25 05:22:49;;;;;;;2.47;1.83;;;10.80;99.90;;;;;;4147082;28;20185;-69
2022/06/25 05:24:49;;;;;;;2.90;1.93;;;10.90;99.90;;;;;;4146972;28;20170;-69
2022/06/25 05:26:50;;;;;;;3.77;1.90;;;10.90;99.90;;;;;;4147074;28;20649;-69
2022/06/25 05:28:51;;;;;;;2.73;1.80;;;11.10;99.90;;;;;;4146953;28;20178;-69
2022/06/25 05:30:51;;;;;;;2.00;1.67;;;11.20;99.90;;;;;;4146201;28;20173;-69
2022/06/25 05:32:52;;;;;;;2.53;1.90;;;11.20;99.90;;;;;;4146486;28;20699;-69
2022/06/25 05:34:54;;;;;;;2.20;1.73;;;11.30;99.90;;;;;;4146858;28;20178;-69
2022/06/25 05:36:55;;;;;;;2.37;2.17;;;11.30;99.90;;;;;;4146816;28;20184;-69
2022/06/25 05:38:55;;;;;;;1.90;1.80;;;11.30;99.90;;;;;;4146726;28;20201;-69
2022/06/25 05:40:57;;;;;;;2.23;2.03;;;11.50;99.90;;;;;;4145957;28;20695;-69
2022/06/25 05:42:57;;;;;;;2.07;1.90;;;11.50;99.90;;;;;;4146741;28;20180;-69
2022/06/25 05:44:58;;;;;;;1.93;1.73;;;11.60;99.90;;;;;;4146859;28;20182;-69
2022/06/25 05:46:58;;;;;;;2.23;2.03;;;11.70;99.90;;;;;;4129102;28;20286;-69
2022/06/25 05:48:59;;;;;;;1.90;1.80;;;11.70;99.90;;;;;;4146632;28;20178;-69
2022/06/25 05:51:00;;;;;;;1.90;1.80;;;11.80;99.90;;;;;;4145832;28;20189;-69
2022/06/25 05:53:00;;;;;;;3.23;1.80;;;11.90;99.90;;;;;;4146456;28;20208;-69
2022/06/25 05:55:01;;;;;;;3.00;2.00;;;12.00;99.90;;;;;;4146580;28;20177;-69
2022/06/25 05:57:02;;;;;;;3.13;2.10;;;12.10;99.90;;;;;;4146475;28;20264;-69
2022/06/25 05:59:02;;;;;;;4.33;2.20;;;12.10;99.90;;;;;;4146528;28;20192;-69
2022/06/25 06:01:03;;;;;;;4.17;2.40;;;12.20;99.90;;;;;;4145659;28;20209;-69
2022/06/25 06:03:03;;;;;;;2.60;2.10;;;12.20;99.90;;;;;;4146649;28;20629;-69
2022/06/25 06:05:04;;;;;;;2.37;2.17;;;12.30;99.90;;;;;;4146354;28;20173;-69
2022/06/25 06:07:05;;;;;;;2.90;2.57;;;12.40;99.90;;;;;;4146334;28;20211;-69
2022/06/25 06:09:06;;;;;;;2.67;2.20;;;12.50;99.90;;;;;;4128867;28;20190;-69
2022/06/25 06:11:06;;;;;;;2.67;1.90;;;12.50;99.90;;;;;;4145472;28;20229;-69
2022/06/25 06:13:07;;;;;;;2.37;2.17;;;12.50;99.90;;;;;;4146315;28;20188;-69
2022/06/25 06:15:08;;;;;;;2.27;2.07;;;12.60;99.90;;;;;;4146364;28;20201;-69
2022/06/25 06:17:09;;;;;;;2.30;2.10;;;12.70;99.90;;;;;;4146346;28;20283;-69
2022/06/25 06:19:10;;;;;;;2.20;2.00;;;12.80;99.90;;;;;;4146380;28;20181;-69
2022/06/25 06:21:10;;;;;;;1.70;1.60;;;12.90;99.90;;;;;;4127954;28;20217;-68
2022/06/25 06:23:11;;;;;;;2.00;1.70;;;13.00;99.90;;;;;;4146195;28;20202;-69
2022/06/25 06:25:11;;;;;;;2.30;2.10;;;13.00;99.90;;;;;;4146324;28;20182;-69
2022/06/25 06:27:12;;;;;;;1.93;1.83;;;13.10;99.90;;;;;;4146478;28;20184;-69
2022/06/25 06:29:12;;;;;;;2.27;2.07;;;13.20;99.90;;;;;;4128936;28;20188;-69
2022/06/25 06:31:13;;;;;;;2.10;1.90;;;13.20;99.90;;;;;;4145542;28;20216;-69
2022/06/25 06:33:14;;;;;;;2.30;1.93;;;13.40;99.90;;;;;;4146250;28;20188;-69
2022/06/25 06:35:14;;;;;;;1.93;1.80;;;13.40;99.90;;;;;;4146266;28;20272;-69
2022/06/25 06:37:15;;;;;;;1.80;1.70;;;13.50;99.90;;;;;;4146250;28;20255;-69
2022/06/25 06:39:15;;;;;;;1.93;1.83;;;13.80;99.90;;;;;;4146102;28;20193;-69
2022/06/25 06:41:17;;;;;;;1.77;1.63;;;14.00;99.90;;;;;;4145403;28;20300;-69
2022/06/25 06:43:18;;;;;;;2.13;1.90;;;14.40;99.90;;;;;;4146144;28;20173;-69
2022/06/25 06:45:18;;;;;;;2.60;1.83;;;14.70;99.90;;;;;;4144271;28;20186;-69
2022/06/25 06:47:19;;;;;;;2.07;1.70;;;14.80;99.90;;;;;;4143253;28;20788;-69
2022/06/25 06:49:19;;;;;;;2.40;1.73;;;14.80;99.90;;;;;;4146025;28;20669;-69
2022/06/25 06:51:20;;;;;;;2.20;1.60;;;14.90;99.90;;;;;;4145675;28;20205;-67
2022/06/25 06:53:21;;;;;;;1.90;1.70;;;15.10;99.90;;;;;;4146161;28;20619;-69
2022/06/25 06:55:21;;;;;;;1.90;1.70;;;15.30;99.90;;;;;;4146115;28;20447;-69
2022/06/25 06:57:22;;;;;;;4.20;1.60;;;15.40;99.90;;;;;;4146137;28;20190;-69
2022/06/25 06:59:22;;;;;;;2.63;1.97;;;15.60;99.90;;;;;;4146347;28;20284;-69
2022/06/25 07:01:23;;;;;;;1.97;1.53;;;15.70;99.90;;;;;;4145442;28;20225;-69
2022/06/25 07:03:23;;;;;;;2.97;1.97;;;15.80;99.90;;;;;;4145501;28;20625;-69
2022/06/25 07:05:24;;;;;;;1.70;1.60;;;16.10;99.90;;;;;;4145944;28;20280;-69
2022/06/25 07:07:24;;;;;;;2.20;1.67;;;16.20;99.90;;;;;;4145887;28;20659;-69
2022/06/25 07:09:25;;;;;;;1.80;1.47;;;16.20;99.90;;;;;;4145893;28;20654;-69
2022/06/25 07:11:28;;;;;;;1.50;1.40;;;16.30;99.90;;;;;;4127850;28;20206;-68
2022/06/25 07:13:29;;;;;;;1.57;1.47;;;16.30;99.90;;;;;;4145973;28;20186;-68
2022/06/25 07:15:29;;;;;;;2.90;1.50;;;16.50;99.90;;;;;;4145873;28;20280;-68
2022/06/25 07:17:30;;;;;;;3.13;2.10;;;16.50;99.90;;;;;;4147377;28;20220;-68
2022/06/25 07:19:30;;;;;;;2.00;1.80;;;16.60;99.70;;;;;;4131370;28;20252;-68
2022/06/25 07:21:31;;;;;;;2.40;1.60;;;16.60;98.40;;;;;;4147997;28;20317;-68
2022/06/25 07:23:32;;;;;;;1.50;1.40;;;16.80;99.40;;;;;;4148823;28;20178;-69
2022/06/25 07:25:32;;;;;;;3.00;1.67;;;16.90;98.80;;;;;;4148778;28;20182;-69
2022/06/25 07:27:33;;;;;;;1.80;1.50;;;17.00;95.20;;;;;;4148721;28;20598;-68
2022/06/25 07:29:34;;;;;;;2.13;1.87;;;17.00;95.60;;;;;;4148476;28;20553;-69
2022/06/25 07:31:34;;;;;;;1.40;1.30;;;17.00;95.80;;;;;;4148152;28;20202;-69
2022/06/25 07:33:35;;;;;;;2.63;1.70;;;17.10;98.60;;;;;;4148465;28;20178;-68
2022/06/25 07:35:36;;;;;;;1.63;1.53;;;17.00;95.30;;;;;;4148671;28;20182;-69
2022/06/25 07:37:36;;;;;;;5.07;1.80;;;17.30;99.00;;;;;;4148525;28;20182;-68
2022/06/25 07:39:37;;;;;;;3.00;1.87;;;17.50;96.40;;;;;;4148602;28;20177;-69
2022/06/25 07:41:38;;;;;;;1.53;1.43;;;17.80;96.50;;;;;;4147770;28;20214;-68
2022/06/25 07:43:38;;;;;;;1.60;1.50;;;18.00;96.10;;;;;;4148481;28;20261;-68
2022/06/25 07:45:39;;;;;;;2.17;1.50;;;18.10;92.20;;;;;;4148534;28;20257;-69
2022/06/25 07:47:39;;;;;;;3.43;3.23;;;18.10;94.00;;;;;;4148439;28;20269;-69
2022/06/25 07:52:00;;;;;;;1.43;1.30;;;18.30;93.20;;;;;;4147630;28;20637;-68
2022/06/25 07:54:00;;;;;;;1.97;1.87;;;18.50;92.20;;;;;;4147986;28;20178;-69
2022/06/25 07:56:01;;;;;;;1.67;1.37;;;18.70;92.00;;;;;;4130839;28;20190;-69
2022/06/25 07:58:02;;;;;;;1.50;1.40;;;18.90;91.80;;;;;;4148397;28;20253;-69
2022/06/25 08:00:04;;;;;;;1.50;1.30;;;18.50;92.10;;;;;;4148248;28;20592;-69
2022/06/25 08:02:05;;;;;;;2.43;2.23;;;18.40;93.80;;;;;;4147396;28;20205;-69
2022/06/25 08:04:05;;;;;;;4.23;3.93;;;18.20;91.70;;;;;;4145558;28;20328;-69
2022/06/25 08:06:06;;;;;;;1.60;1.50;;;18.20;91.70;;;;;;4148017;28;20186;-69
2022/06/25 08:08:07;;;;;;;7.80;7.33;;;18.50;93.20;;;;;;4148022;28;20186;-69
2022/06/25 08:10:08;;;;;;;2.10;1.90;;;18.80;90.40;;;;;;4148044;28;20186;-69
2022/06/25 08:12:10;;;;;;;4.83;3.70;;;18.80;87.60;;;;;;4147503;28;20213;-69
2022/06/25 08:14:10;;;;;;;3.37;1.60;;;18.50;90.10;;;;;;4148100;28;20312;-69
2022/06/25 08:16:11;;;;;;;2.77;1.40;;;18.70;90.50;;;;;;4142342;28;20186;-69
2022/06/25 08:18:11;;;;;;;1.30;1.20;;;19.00;88.90;;;;;;4145603;28;20193;-69
2022/06/25 08:20:12;;;;;;;1.90;1.77;;;19.00;88.00;;;;;;4146759;28;20185;-69
2022/06/25 08:22:13;;;;;;;2.10;1.63;;;19.40;82.80;;;;;;4143347;28;20228;-69
2022/06/25 08:24:13;;;;;;;1.73;1.47;;;19.50;84.50;;;;;;4146905;28;20208;-69
2022/06/25 08:26:15;;;;;;;1.87;1.43;;;19.50;81.30;;;;;;4138152;28;20606;-69
2022/06/25 08:28:16;;;;;;;3.03;1.77;;;19.60;80.30;;;;;;4145650;28;20264;-69
2022/06/25 08:30:23;;;;;;;3.30;1.60;;;19.50;78.10;;;;;;4147544;28;20178;-68
2022/06/25 08:32:23;;;;;;;3.30;1.50;;;19.70;78.10;;;;;;4147233;28;20205;-69
2022/06/25 08:34:25;;;;;;;1.97;1.60;;;19.90;74.80;;;;;;4141649;28;20194;-69
2022/06/25 08:36:25;;;;;;;1.50;1.40;;;19.90;71.80;;;;;;4142995;28;20197;-68
2022/06/25 08:38:26;;;;;;;2.17;1.50;;;19.80;71.80;;;;;;4147479;28;20185;-68
2022/06/25 08:40:26;;;;;;;1.30;1.20;;;19.90;67.50;;;;;;4147667;28;20628;-68
2022/06/25 08:42:27;;;;;;;1.70;1.60;;;19.90;71.50;;;;;;4146859;28;20715;-69
2022/06/25 08:44:30;;;;;;;1.97;1.40;;;20.20;72.90;;;;;;4147675;28;20279;-68
2022/06/25 08:46:32;;;;;;;1.60;1.50;;;19.80;69.50;;;;;;4147496;28;20182;-69
2022/06/25 08:48:34;;;;;;;3.07;2.87;;;20.10;74.10;;;;;;4147394;28;20182;-68
2022/06/25 08:50:35;;;;;;;1.53;1.40;;;20.20;69.00;;;;;;4147555;28;20170;-68
2022/06/25 08:52:37;;;;;;;2.80;2.50;;;20.20;71.50;;;;;;4146396;28;20221;-68
2022/06/25 08:54:39;;;;;;;2.20;1.33;;;20.30;68.30;;;;;;4147502;28;20182;-68
2022/06/25 08:56:41;;;;;;;6.97;6.57;;;20.30;70.30;;;;;;4147644;28;20201;-69
2022/06/25 08:58:44;;;;;;;3.27;1.50;;;19.80;71.30;;;;;;4147545;28;20549;-69
2022/06/25 09:00:45;;;;;;;1.80;1.50;;;19.80;73.10;;;;;;4146936;28;20198;-69
2022/06/25 09:02:46;;;;;;;2.57;2.17;;;19.90;68.40;;;;;;4147322;28;20553;-68
2022/06/25 09:04:47;;;;;;;1.90;1.80;;;19.50;68.70;;;;;;4147238;28;20181;-68
2022/06/25 09:06:50;;;;;;;4.93;4.13;;;19.50;70.50;;;;;;4147309;28;20268;-68
2022/06/25 09:09:15;;;;;;;2.77;1.80;;;19.90;72.30;;;;;;4147158;28;20182;-68
2022/06/25 09:11:15;;;;;;;1.53;1.43;;;20.30;72.80;;;;;;4146528;28;20267;-68
2022/06/25 09:13:16;;;;;;;2.20;1.40;;;20.40;66.60;;;;;;4148125;28;20178;-68
2022/06/25 09:15:33;;;;;;;2.37;2.17;;;20.70;64.80;;;;;;4149178;28;20189;-69
2022/06/25 09:17:33;;;;;;;3.10;1.37;;;20.50;64.70;;;;;;4148837;28;20787;-68
2022/06/25 09:19:36;;;;;;;1.50;1.40;;;20.70;65.60;;;;;;4148523;28;20188;-69
2022/06/25 09:21:41;;;;;;;3.07;1.30;;;20.50;65.10;;;;;;4148024;28;20296;-69
2022/06/25 09:24:00;;;;;;;1.77;1.30;;;20.50;63.50;;;;;;4148057;28;20192;-69
2022/06/25 09:26:10;;;;;;;1.47;1.20;;;21.10;63.10;;;;;;4127312;28;20206;-69
2022/06/25 09:28:46;;;;;;;3.27;2.87;;;20.90;62.00;;;;;;4149125;28;20211;-68
2022/06/25 09:30:46;;;;;;;2.80;2.27;;;20.70;63.10;;;;;;4148380;28;20243;-69
2022/06/25 09:32:54;;;;;;;2.43;1.27;;;20.30;66.60;;;;;;4149097;28;20217;-69
2022/06/25 09:34:55;;;;;;;2.17;1.97;;;20.30;67.00;;;;;;4131680;28;20281;-68
2022/06/25 09:36:55;;;;;;;2.23;2.13;;;20.80;64.10;;;;;;4149134;28;20177;-69
2022/06/25 09:38:56;;;;;;;3.13;2.90;;;20.80;64.20;;;;;;4149098;28;20209;-69
2022/06/25 09:40:59;;;;;;;15.47;14.67;;;20.90;64.90;;;;;;4147997;28;20589;-69
2022/06/25 09:43:10;;;;;;;1.70;1.60;;;21.20;61.90;;;;;;4149316;28;20630;-69
2022/06/25 09:45:12;;;;;;;11.57;10.97;;;22.20;66.60;;;;;;4149198;28;20162;-69
2022/06/25 09:47:14;;;;;;;2.97;2.70;;;22.20;57.40;;;;;;4148920;28;20223;-69
2022/06/25 09:49:24;;;;;;;1.67;1.30;;;22.10;56.50;;;;;;4149140;28;20257;-69
2022/06/25 09:51:26;;;;;;;2.20;1.43;;;22.00;56.30;;;;;;4130984;28;20288;-70
2022/06/25 09:53:27;;;;;;;2.77;1.70;;;22.30;60.70;;;;;;4148906;28;20201;-69
2022/06/25 09:55:30;;;;;;;3.03;2.20;;;22.50;55.30;;;;;;4149280;28;20211;-70
2022/06/25 09:57:32;;;;;;;1.80;1.40;;;22.60;55.20;;;;;;4149456;28;20173;-70
2022/06/25 09:59:34;;;;;;;1.97;1.50;;;22.20;53.90;;;;;;4149646;28;20197;-69
2022/06/25 10:01:34;;;;;;;1.33;1.23;;;22.10;55.80;;;;;;4146819;28;20227;-70
2022/06/25 10:03:37;;;;;;;1.07;1.07;;;22.30;55.20;;;;;;4129740;28;20204;-70
2022/06/25 10:05:40;;;;;;;2.47;1.23;;;22.90;51.90;;;;;;4147055;28;20174;-70
2022/06/25 10:08:04;;;;;;;1.40;1.30;;;23.00;49.80;;;;;;4147019;28;20201;-70
2022/06/25 10:10:05;;;;;;;2.30;1.20;;;23.50;48.70;;;;;;4148042;28;20158;-70
2022/06/25 10:12:06;;;;;;;3.83;3.60;;;23.80;49.30;;;;;;4148662;28;20201;-70
2022/06/25 10:14:07;;;;;;;6.83;6.33;;;23.70;47.20;;;;;;4149020;28;20265;-70
2022/06/25 10:16:08;;;;;;;2.20;1.50;;;23.20;49.40;;;;;;4131460;28;20226;-70
2022/06/25 10:18:09;;;;;;;10.70;10.07;;;23.60;48.60;;;;;;4149489;28;20212;-69
2022/06/25 10:20:10;;;;;;;41.57;39.67;;;23.90;46.50;;;;;;4149818;28;20671;-69
2022/06/25 10:22:12;;;;;;;1.30;1.20;;;23.40;47.70;;;;;;4149257;28;20220;-69
2022/06/25 10:24:13;;;;;;;1.40;1.30;;;23.00;53.20;;;;;;4149554;28;20233;-69
2022/06/25 10:26:14;;;;;;;1.60;1.33;;;22.70;50.80;;;;;;4132070;28;20178;-68
2022/06/25 10:28:16;;;;;;;3.47;1.30;;;22.30;53.00;;;;;;4149765;28;20201;-70
2022/06/25 10:30:37;;;;;;;1.80;1.10;;;22.10;52.40;;;;;;4149556;28;20227;-69
2022/06/25 10:32:47;;;;;;;1.50;1.20;;;22.30;52.90;;;;;;4148908;28;20284;-68
2022/06/25 10:35:01;;;;;;;1.60;1.40;;;22.30;53.00;;;;;;4148993;28;20178;-68
2022/06/25 10:37:01;;;;;;;1.50;1.40;;;22.80;52.00;;;;;;4149015;28;20231;-69
2022/06/25 10:39:22;;;;;;;4.30;4.10;;;23.10;50.70;;;;;;4148854;28;20616;-69
2022/06/25 10:43:46;;;;;;;1.47;1.20;;;24.30;47.10;;;;;;4149248;28;20228;-68
2022/06/25 10:45:46;;;;;;;1.73;1.43;;;24.80;45.00;;;;;;4131880;28;20266;-68
2022/06/25 10:47:58;;;;;;;3.33;1.23;;;24.00;47.50;;;;;;4149387;28;20229;-69